Time;durP1;ratioP1;P1;durP2;ratioP2;P2;SDS_P1;SDS_P2;PMS_P1;PMS_P2;Temp;Humidity;BMP_temperature;BMP_pressure;BME280_temperature;BME280_humidity;BME280_pressure;Samples;Min_cycle;Max_cycle;Signal;HPM_P1;HPM_P2
2021/05/22 00:06:54;;;;;;;1999.90;999.90;;;;;;;12.94;55.02;99882.09;15750305;28;20117;-65
2021/05/22 00:14:27;;;;;;;1999.90;999.90;;;;;;;12.92;55.07;99876.03;15749670;28;20064;-63
2021/05/22 00:21:58;;;;;;;1999.90;999.90;;;;;;;12.93;56.43;99847.69;15720230;28;20045;-64
2021/05/22 00:29:31;;;;;;;1999.90;999.90;;;;;;;12.77;57.53;99837.72;15685229;28;20402;-64
2021/05/22 00:37:02;;;;;;;1999.90;999.90;;;;;;;12.56;59.19;99835.31;15685729;28;20071;-64
2021/05/22 00:44:35;;;;;;;1999.90;999.90;;;;;;;12.37;59.61;99819.31;15684336;28;20041;-64
2021/05/22 00:52:07;;;;;;;1999.90;999.90;;;;;;;11.99;61.46;99831.25;15685187;28;20053;-64
2021/05/22 00:59:39;;;;;;;1999.90;999.90;;;;;;;12.01;61.79;99810.13;15682894;28;20516;-64
2021/05/22 01:07:11;;;;;;;1999.90;999.90;;;;;;;11.87;61.69;99823.75;15683656;28;20102;-64
2021/05/22 01:14:46;;;;;;;1999.90;999.90;;;;;;;11.94;61.07;99829.53;15708928;28;20044;-64
2021/05/22 01:22:19;;;;;;;1999.90;999.90;;;;;;;12.01;59.19;99826.09;15713215;28;20049;-64
2021/05/22 01:29:52;;;;;;;1999.90;999.90;;;;;;;12.12;58.14;99829.94;15682608;28;20413;-64
2021/05/22 01:37:24;;;;;;;1999.90;999.90;;;;;;;12.04;58.14;99828.16;15682434;28;20410;-64
2021/05/22 01:44:58;;;;;;;1999.90;999.90;;;;;;;12.33;57.68;99824.84;15681810;28;20524;-63
2021/05/22 01:52:33;;;;;;;1999.90;999.90;;;;;;;12.40;58.15;99811.00;15681184;28;20041;-64
2021/05/22 02:00:07;;;;;;;1999.90;999.90;;;;;;;12.39;58.49;99811.34;15680478;28;20052;-64
2021/05/22 02:07:47;;;;;;;1999.90;999.90;;;;;;;12.15;60.67;99812.44;15681086;28;20056;-63
2021/05/22 02:15:20;;;;;;;1999.90;999.90;;;;;;;12.05;59.91;99816.59;15697094;28;20541;-64
2021/05/22 02:22:53;;;;;;;1999.90;999.90;;;;;;;12.23;59.40;99824.59;15708257;28;20033;-64
2021/05/22 02:30:27;;;;;;;1999.90;999.90;;;;;;;12.23;60.10;99825.41;15679622;28;20045;-63
2021/05/22 02:37:59;;;;;;;1999.90;999.90;;;;;;;12.43;59.85;99834.63;15661205;28;20065;-64
2021/05/22 02:45:35;;;;;;;1999.90;999.90;;;;;;;12.47;60.23;99832.72;15678725;28;20072;-64
2021/05/22 02:53:10;;;;;;;1999.90;999.90;;;;;;;12.75;60.01;99845.69;15679003;28;20049;-64
2021/05/22 03:00:43;;;;;;;1999.90;999.90;;;;;;;12.60;60.17;99847.38;15682337;28;20227;-63
2021/05/22 03:08:15;;;;;;;1999.90;999.90;;;;;;;12.67;60.58;99842.75;15683798;28;20048;-64
2021/05/22 03:15:48;;;;;;;1999.90;999.90;;;;;;;12.54;61.13;99823.69;15693263;28;20271;-63
2021/05/22 03:23:19;;;;;;;1999.90;999.90;;;;;;;12.50;61.62;99831.16;15694105;28;20099;-64
2021/05/22 03:30:52;;;;;;;1999.90;999.90;;;;;;;12.52;62.17;99834.44;15696556;28;20068;-63
2021/05/22 03:38:24;;;;;;;1999.90;999.90;;;;;;;12.52;62.40;99846.44;15697073;28;20441;-64
2021/05/22 03:45:57;;;;;;;1999.90;999.90;;;;;;;12.65;62.79;99844.28;15697079;28;20053;-64
2021/05/22 03:53:28;;;;;;;1999.90;999.90;;;;;;;12.70;63.28;99844.78;15696281;28;20068;-65
2021/05/22 04:01:01;;;;;;;1999.90;999.90;;;;;;;13.00;63.12;99853.41;15695228;28;20037;-64
2021/05/22 04:08:32;;;;;;;1999.90;999.90;;;;;;;13.10;63.40;99862.38;15696686;28;20049;-62
2021/05/22 04:16:05;;;;;;;1999.90;999.90;;;;;;;13.20;63.47;99861.81;15722410;28;20401;-63
2021/05/22 04:23:37;;;;;;;1999.90;999.90;;;;;;;13.37;63.50;99869.75;15757000;28;20041;-64
2021/05/22 04:31:09;;;;;;;1999.90;999.90;;;;;;;13.61;63.55;99859.34;15754506;28;20032;-65
2021/05/22 04:38:41;;;;;;;1999.90;999.90;;;;;;;13.60;63.86;99847.31;15746598;28;20416;-63
2021/05/22 04:46:13;;;;;;;1999.90;999.90;;;;;;;13.78;63.80;99859.66;15747482;28;20063;-63
2021/05/22 04:54:06;;;;;;;1999.90;999.90;;;;;;;14.00;63.66;99858.00;15746277;28;20456;-64
2021/05/22 05:01:40;;;;;;;1999.90;999.90;;;;;;;14.37;63.15;99860.13;15728702;28;20409;-64
2021/05/22 05:09:12;;;;;;;1999.90;999.90;;;;;;;14.85;61.98;99866.84;15679249;28;20041;-65
2021/05/22 05:16:45;;;;;;;1999.90;999.90;;;;;;;14.88;62.36;99873.69;15812314;22;20048;-64
2021/05/22 05:24:17;;;;;;;1999.90;999.90;;;;;;;14.65;63.63;99883.03;15808684;28;20548;-64
2021/05/22 05:31:50;;;;;;;1999.90;999.90;;;;;;;14.15;68.58;99885.06;15805141;28;20329;-63
2021/05/22 05:39:21;;;;;;;1999.90;999.90;;;;;;;14.34;69.77;99894.56;15806205;28;20143;-64
2021/05/22 05:46:54;;;;;;;1999.90;999.90;;;;;;;14.47;70.40;99887.56;15789396;28;20349;-64
2021/05/22 05:54:26;;;;;;;1999.90;999.90;;;;;;;14.96;69.97;99889.44;15806281;28;20484;-64
2021/05/22 06:01:59;;;;;;;1999.90;999.90;;;;;;;15.28;68.62;99889.81;15807146;28;20079;-64
2021/05/22 06:09:30;;;;;;;1999.90;999.90;;;;;;;14.99;68.62;99891.47;15808168;28;20102;-64
2021/05/22 06:17:05;;;;;;;1999.90;999.90;;;;;;;15.62;66.66;99896.19;15804226;28;20059;-61
2021/05/22 06:24:36;;;;;;;1999.90;999.90;;;;;;;16.14;65.13;99894.25;15819210;28;20097;-63
2021/05/22 06:32:09;;;;;;;1999.90;999.90;;;;;;;16.62;62.65;99889.34;15818271;28;20062;-64
2021/05/22 06:39:40;;;;;;;1999.90;999.90;;;;;;;16.68;61.83;99892.63;15829789;28;20050;-63
2021/05/22 06:47:13;;;;;;;1999.90;999.90;;;;;;;16.68;61.96;99896.25;15820176;28;20126;-63
2021/05/22 06:54:45;;;;;;;1999.90;999.90;;;;;;;16.71;61.19;99909.53;15819974;28;20081;-63
2021/05/22 07:02:18;;;;;;;1999.90;999.90;;;;;;;16.58;60.15;99918.69;15800028;28;20044;-63
2021/05/22 07:09:49;;;;;;;1999.90;999.90;;;;;;;16.73;57.91;99920.41;15813867;28;20066;-64
2021/05/22 07:17:22;;;;;;;1999.90;999.90;;;;;;;16.72;56.01;99918.81;15821484;28;20041;-62
2021/05/22 07:24:54;;;;;;;1999.90;999.90;;;;;;;16.73;54.21;99924.03;15822943;28;20492;-63
2021/05/22 07:32:26;;;;;;;1999.90;999.90;;;;;;;17.20;53.50;99930.72;15794180;28;20036;-63
2021/05/22 07:39:58;;;;;;;1999.90;999.90;;;;;;;18.22;49.51;99945.44;15811853;28;20500;-63
2021/05/22 07:47:30;;;;;;;1999.90;999.90;;;;;;;19.35;48.88;99945.59;15813494;28;20085;-62
2021/05/22 07:55:02;;;;;;;1999.90;999.90;;;;;;;19.90;46.35;99951.38;15817657;28;20111;-62
2021/05/22 08:02:35;;;;;;;1999.90;999.90;;;;;;;20.44;42.79;99960.31;15815759;28;20055;-62
2021/05/22 08:10:09;;;;;;;1999.90;999.90;;;;;;;20.65;42.45;99951.59;15819803;28;20067;-62
2021/05/22 08:17:41;;;;;;;1999.90;999.90;;;;;;;20.41;42.54;99946.91;15823955;28;20039;-62
2021/05/22 08:25:13;;;;;;;1999.90;999.90;;;;;;;21.67;40.00;99945.09;15826763;28;20055;-63
2021/05/22 08:32:46;;;;;;;1999.90;999.90;;;;;;;21.82;40.88;99940.03;15823702;28;20090;-61
2021/05/22 08:40:18;;;;;;;1999.90;999.90;;;;;;;21.48;40.99;99935.25;15822443;28;20227;-62
2021/05/22 08:47:52;;;;;;;1999.90;999.90;;;;;;;22.27;38.56;99929.19;15803557;28;20063;-63
2021/05/22 08:55:27;;;;;;;1999.90;999.90;;;;;;;21.57;39.73;99926.19;15841580;28;20536;-63
2021/05/22 09:02:59;;;;;;;1999.90;999.90;;;;;;;19.59;41.12;99936.19;15824465;28;20445;-63
2021/05/22 09:10:33;;;;;;;1999.90;999.90;;;;;;;19.09;42.29;99927.13;15823328;28;20044;-63
2021/05/22 09:18:09;;;;;;;1999.90;999.90;;;;;;;19.66;41.44;99926.88;15820330;28;20036;-61
2021/05/22 09:25:42;;;;;;;1999.90;999.90;;;;;;;22.43;36.78;99920.00;15817238;28;20143;-62
2021/05/22 09:33:16;;;;;;;1999.90;999.90;;;;;;;22.35;36.36;99929.88;15811089;28;20463;-63
2021/05/22 09:40:48;;;;;;;1999.90;999.90;;;;;;;21.00;36.86;99921.25;15818362;28;20126;-61
2021/05/22 09:48:24;;;;;;;1999.90;999.90;;;;;;;22.22;35.10;99909.81;15806226;28;20380;-62
2021/05/22 09:56:14;;;;;;;1999.90;999.90;;;;;;;23.97;33.96;99909.09;15811262;28;20047;-64
2021/05/22 10:03:48;;;;;;;1999.90;999.90;;;;;;;21.87;34.66;99919.66;15807093;28;20040;-63
2021/05/22 10:11:20;;;;;;;1999.90;999.90;;;;;;;22.06;36.79;99903.94;15805473;28;20342;-63
2021/05/22 10:18:52;;;;;;;1999.90;999.90;;;;;;;21.69;34.06;99902.13;15803120;28;20422;-63
2021/05/22 10:26:24;;;;;;;1999.90;999.90;;;;;;;20.95;35.85;99901.88;15808953;28;20512;-63
2021/05/22 10:33:57;;;;;;;1999.90;999.90;;;;;;;21.24;35.12;99919.31;15803771;28;20056;-62
2021/05/22 10:41:38;;;;;;;1999.90;999.90;;;;;;;21.05;35.39;99912.28;15787237;28;20445;-63
2021/05/22 10:49:10;;;;;;;1999.90;999.90;;;;;;;23.20;32.21;99911.19;15802787;28;20060;-63
2021/05/22 10:57:00;;;;;;;1999.90;999.90;;;;;;;22.23;34.59;99913.44;15803254;28;20098;-63
2021/05/22 11:04:37;;;;;;;1999.90;999.90;;;;;;;22.80;32.59;99903.88;15797281;28;20433;-63
2021/05/22 11:12:42;;;;;;;1999.90;999.90;;;;;;;21.17;33.53;99930.78;15822244;22;20514;-64
2021/05/22 11:20:18;;;;;;;1999.90;999.90;;;;;;;21.78;33.75;99919.41;15793842;28;20044;-63
2021/05/22 11:27:58;;;;;;;1999.90;999.90;;;;;;;20.48;35.25;99943.25;15801257;28;20052;-63
2021/05/22 11:35:36;;;;;;;1999.90;999.90;;;;;;;22.24;35.90;99952.78;15801799;28;20338;-63
2021/05/22 11:43:23;;;;;;;1999.90;999.90;;;;;;;21.40;33.67;99947.91;15810558;28;20070;-62
2021/05/22 11:51:05;;;;;;;1999.90;999.90;;;;;;;20.24;36.03;99956.41;15814218;28;20314;-63
2021/05/22 11:58:38;;;;;;;1999.90;999.90;;;;;;;22.10;34.46;99936.78;15795988;28;20416;-63
2021/05/22 12:06:21;;;;;;;1999.90;999.90;;;;;;;21.67;34.68;99947.13;15813208;28;20048;-63
2021/05/22 12:13:54;;;;;;;1999.90;999.90;;;;;;;20.35;35.83;99951.44;15812717;28;20676;-63
2021/05/22 12:21:30;;;;;;;1999.90;999.90;;;;;;;19.56;36.94;99957.63;15812436;28;20101;-64
2021/05/22 12:29:02;;;;;;;1999.90;999.90;;;;;;;19.67;37.01;99962.44;15793704;28;20067;-63
2021/05/22 12:36:35;;;;;;;1999.90;999.90;;;;;;;18.55;39.90;99963.16;15795027;28;20135;-63
2021/05/22 12:44:18;;;;;;;1999.90;999.90;;;;;;;18.77;39.99;99963.97;15811082;28;20048;-63
2021/05/22 12:52:07;;;;;;;1999.90;999.90;;;;;;;24.07;32.75;99954.44;15808299;28;20071;-63
2021/05/22 12:59:42;;;;;;;1999.90;999.90;;;;;;;22.05;34.17;99937.22;15810103;28;20042;-62
2021/05/22 13:07:14;;;;;;;1999.90;999.90;;;;;;;20.58;37.04;99943.16;15792111;28;20405;-62
2021/05/22 13:14:46;;;;;;;1999.90;999.90;;;;;;;19.20;39.72;99959.81;15810096;28;20127;-62
2021/05/22 13:22:24;;;;;;;1999.90;999.90;;;;;;;20.89;35.94;99938.38;15809299;28;20044;-62
2021/05/22 13:29:56;;;;;;;1999.90;999.90;;;;;;;20.66;36.93;99944.69;15809175;28;20063;-62
2021/05/22 13:37:29;;;;;;;1999.90;999.90;;;;;;;20.63;38.42;99947.53;15806669;28;20107;-64
2021/05/22 13:45:00;;;;;;;1999.90;999.90;;;;;;;19.76;40.32;99971.28;15806694;28;20036;-62
2021/05/22 13:52:33;;;;;;;1999.90;999.90;;;;;;;19.56;40.10;99974.63;15806060;28;20047;-61
2021/05/22 14:00:06;;;;;;;1999.90;999.90;;;;;;;19.40;41.29;99987.63;15806726;28;20077;-61
2021/05/22 14:07:43;;;;;;;1999.90;999.90;;;;;;;18.13;44.77;100002.31;15805823;28;20475;-61
2021/05/22 14:15:16;;;;;;;1999.90;999.90;;;;;;;18.49;43.45;99993.84;15805528;28;20052;-61
2021/05/22 14:22:49;;;;;;;1999.90;999.90;;;;;;;17.64;44.74;100000.16;15805304;28;20048;-62
2021/05/22 14:30:22;;;;;;;1999.90;999.90;;;;;;;18.83;43.59;99999.09;15805260;28;20076;-63
2021/05/22 14:37:54;;;;;;;1999.90;999.90;;;;;;;19.35;43.21;99990.84;15803418;28;20036;-63
2021/05/22 14:45:26;;;;;;;1999.90;999.90;;;;;;;19.49;41.98;99985.97;15805156;28;20488;-62
2021/05/22 14:53:00;;;;;;;1999.90;999.90;;;;;;;19.08;40.70;99980.06;15805135;28;20055;-62
2021/05/22 15:00:32;;;;;;;1999.90;999.90;;;;;;;18.57;44.16;100000.31;15805279;28;20496;-63
2021/05/22 15:08:05;;;;;;;1999.90;999.90;;;;;;;17.95;45.61;100034.53;15785437;28;20488;-63
2021/05/22 15:15:37;;;;;;;1999.90;999.90;;;;;;;17.39;49.31;100044.34;15802071;28;20051;-63
2021/05/22 15:23:09;;;;;;;1999.90;999.90;;;;;;;17.56;48.21;100041.63;15784358;28;20048;-62
2021/05/22 15:30:41;;;;;;;1999.90;999.90;;;;;;;17.60;49.42;100042.44;15802981;28;20048;-63
2021/05/22 15:38:13;;;;;;;1999.90;999.90;;;;;;;18.60;46.94;100053.97;15802143;28;20450;-63
2021/05/22 15:45:46;;;;;;;1999.90;999.90;;;;;;;17.96;47.48;100061.56;15802213;28;20200;-62
2021/05/22 16:01:15;;;;;;;1999.90;999.90;;;;;;;17.20;49.29;100065.22;15800407;28;20048;-62
2021/05/22 16:08:48;;;;;;;1999.90;999.90;;;;;;;17.55;49.37;100081.53;15799629;28;20397;-62
2021/05/22 16:16:19;;;;;;;1999.90;999.90;;;;;;;17.13;50.19;100077.25;15799271;28;20409;-63
2021/05/22 16:23:51;;;;;;;1999.90;999.90;;;;;;;17.62;49.44;100086.41;15800962;28;20047;-62
2021/05/22 16:31:23;;;;;;;1999.90;999.90;;;;;;;17.74;50.44;100069.94;15808323;28;20056;-62
2021/05/22 16:38:55;;;;;;;1999.90;999.90;;;;;;;17.71;50.04;100089.66;15811200;28;20050;-63
2021/05/22 16:46:27;;;;;;;1999.90;999.90;;;;;;;17.47;50.67;100102.41;15811438;28;20101;-62
2021/05/22 16:54:00;;;;;;;1999.90;999.90;;;;;;;17.64;49.84;100090.44;15810744;28;20055;-62
2021/05/22 17:01:32;;;;;;;1999.90;999.90;;;;;;;17.19;50.88;100100.22;15811205;28;20109;-63
2021/05/22 17:09:05;;;;;;;1999.90;999.90;;;;;;;17.06;53.49;100108.19;15808130;28;20077;-62
2021/05/22 17:16:36;;;;;;;1999.90;999.90;;;;;;;16.57;54.27;100102.94;15857967;28;20070;-62
2021/05/22 17:24:16;;;;;;;1999.90;999.90;;;;;;;17.02;54.31;100111.00;15872402;28;20066;-62
2021/05/22 17:31:47;;;;;;;1999.90;999.90;;;;;;;16.82;55.05;100111.66;15871836;28;20169;-62
2021/05/22 17:39:20;;;;;;;1999.90;999.90;;;;;;;17.25;55.01;100124.84;15869843;28;20048;-62
2021/05/22 17:46:52;;;;;;;1999.90;999.90;;;;;;;17.02;56.36;100138.38;15870827;28;20040;-62
2021/05/22 17:54:24;;;;;;;1999.90;999.90;;;;;;;16.71;57.54;100148.97;15869562;28;20438;-63
2021/05/22 18:01:56;;;;;;;1999.90;999.90;;;;;;;16.32;59.68;100157.00;15868464;28;20419;-62
2021/05/22 18:09:28;;;;;;;1999.90;999.90;;;;;;;16.21;62.62;100155.25;15867966;28;20043;-62
2021/05/22 18:17:00;;;;;;;1999.90;999.90;;;;;;;15.92;63.82;100154.91;15868844;28;20060;-62
2021/05/22 18:24:33;;;;;;;1999.90;999.90;;;;;;;15.77;64.67;100164.38;15868685;28;20047;-62
2021/05/22 18:32:05;;;;;;;1999.90;999.90;;;;;;;15.89;65.95;100166.94;15868418;28;20044;-62
2021/05/22 18:39:37;;;;;;;1999.90;999.90;;;;;;;15.72;65.59;100173.13;15850673;28;20352;-62
2021/05/22 18:47:09;;;;;;;1999.90;999.90;;;;;;;15.56;64.78;100176.09;15866122;28;20071;-62
2021/05/22 18:54:42;;;;;;;1999.90;999.90;;;;;;;15.71;64.46;100177.94;15866320;28;20044;-62
2021/05/22 19:02:19;;;;;;;1999.90;999.90;;;;;;;15.91;63.63;100187.06;15866260;28;20109;-62
2021/05/22 19:09:52;;;;;;;1999.90;999.90;;;;;;;15.61;64.79;100200.28;15865955;28;20297;-63
2021/05/22 19:17:23;;;;;;;1999.90;999.90;;;;;;;15.46;64.66;100199.25;15865739;28;20412;-63
2021/05/22 19:24:56;;;;;;;1999.90;999.90;;;;;;;15.53;65.20;100208.63;15865399;28;20131;-62
2021/05/22 19:32:28;;;;;;;1999.90;999.90;;;;;;;15.58;64.31;100213.91;15866827;28;20049;-63
2021/05/22 19:40:00;;;;;;;1999.90;999.90;;;;;;;15.53;64.62;100213.44;15865130;28;20454;-61
2021/05/22 19:47:32;;;;;;;1999.90;999.90;;;;;;;15.31;64.93;100215.06;15865963;28;20048;-62
2021/05/22 19:55:06;;;;;;;1999.90;999.90;;;;;;;15.19;65.09;100215.28;15867771;28;20188;-62
2021/05/22 20:02:39;;;;;;;1999.90;999.90;;;;;;;15.14;64.99;100212.78;15869625;28;20039;-61
2021/05/22 20:10:13;;;;;;;1999.90;999.90;;;;;;;15.06;65.05;100216.66;15875567;28;20051;-62
2021/05/22 20:17:45;;;;;;;1999.90;999.90;;;;;;;15.33;63.69;100226.78;15874624;28;20052;-62
2021/05/22 20:25:17;;;;;;;1999.90;999.90;;;;;;;15.45;64.38;100228.56;15857665;28;20039;-62
2021/05/22 20:32:50;;;;;;;1999.90;999.90;;;;;;;15.21;65.17;100238.19;15856988;28;20047;-61
2021/05/22 20:40:23;;;;;;;1999.90;999.90;;;;;;;14.98;65.90;100241.00;15875071;28;20071;-62
2021/05/22 20:47:54;;;;;;;1999.90;999.90;;;;;;;14.88;65.88;100247.25;15873863;28;20496;-62
2021/05/22 20:55:27;;;;;;;1999.90;999.90;;;;;;;14.51;66.56;100253.38;15872293;28;20437;-62
2021/05/22 21:02:59;;;;;;;1999.90;999.90;;;;;;;14.50;66.17;100256.56;15873206;28;20048;-62
2021/05/22 21:10:32;;;;;;;1999.90;999.90;;;;;;;14.48;65.52;100264.53;15871610;28;20136;-61
2021/05/22 21:18:05;;;;;;;1999.90;999.90;;;;;;;14.61;64.81;100268.81;15870315;28;20511;-62
2021/05/22 21:25:37;;;;;;;1999.90;999.90;;;;;;;14.37;64.99;100281.94;15870865;28;20321;-62
2021/05/22 21:33:09;;;;;;;1999.90;999.90;;;;;;;14.35;64.09;100283.47;15871918;27;20047;-61
2021/05/22 21:40:41;;;;;;;1999.90;999.90;;;;;;;14.38;62.94;100291.16;15870825;28;20046;-63
2021/05/22 21:48:13;;;;;;;1999.90;999.90;;;;;;;14.48;61.61;100293.41;15870010;28;20047;-62
2021/05/22 21:55:45;;;;;;;1999.90;999.90;;;;;;;14.75;60.39;100311.22;15869713;28;20044;-61
2021/05/22 22:03:20;;;;;;;1999.90;999.90;;;;;;;14.78;60.45;100312.47;15868359;28;20043;-61
2021/05/22 22:10:55;;;;;;;1999.90;999.90;;;;;;;14.87;59.82;100319.47;15867668;28;20075;-61
2021/05/22 22:18:28;;;;;;;1999.90;999.90;;;;;;;14.39;60.37;100332.09;15867442;28;20054;-61
2021/05/22 22:26:00;;;;;;;1999.90;999.90;;;;;;;14.77;59.47;100328.50;15868249;28;20081;-62
2021/05/22 22:33:33;;;;;;;1999.90;999.90;;;;;;;14.46;60.30;100342.69;15873567;28;20048;-60
2021/05/22 22:41:08;;;;;;;1999.90;999.90;;;;;;;14.25;60.75;100343.81;15867646;28;20093;-60
2021/05/22 22:48:40;;;;;;;1999.90;999.90;;;;;;;14.39;59.89;100349.75;15865665;28;20062;-62
2021/05/22 22:56:15;;;;;;;1999.90;999.90;;;;;;;14.22;60.51;100358.59;15865100;28;20519;-59
2021/05/22 23:03:47;;;;;;;1999.90;999.90;;;;;;;14.15;60.46;100353.63;15864898;28;20336;-61
2021/05/22 23:11:19;;;;;;;1999.90;999.90;;;;;;;14.30;60.26;100360.38;15864576;28;20067;-60
2021/05/22 23:18:51;;;;;;;1999.90;999.90;;;;;;;14.34;60.27;100354.84;15862485;28;20507;-61
2021/05/22 23:26:23;;;;;;;1999.90;999.90;;;;;;;14.13;60.45;100367.19;15865123;28;20404;-61
2021/05/22 23:33:55;;;;;;;1999.90;999.90;;;;;;;13.95;61.01;100365.16;15864351;28;20043;-63
2021/05/22 23:41:27;;;;;;;1999.90;999.90;;;;;;;14.18;61.04;100370.91;15861686;28;20040;-63
2021/05/22 23:49:00;;;;;;;1999.90;999.90;;;;;;;13.74;62.28;100373.84;15877582;28;20040;-63
2021/05/22 23:56:32;;;;;;;1999.90;999.90;;;;;;;13.76;62.42;100379.94;15877871;28;20520;-63
